Time;durP1;ratioP1;P1;durP2;ratioP2;P2;SDS_P1;SDS_P2;PMS_P1;PMS_P2;Temp;Humidity;BMP_temperature;BMP_pressure;BME280_temperature;BME280_humidity;BME280_pressure;Samples;Min_cycle;Max_cycle;Signal;HPM_P1;HPM_P2
2022/05/10 00:02:14;;;;;;;19.27;5.95;;;;;;;-144.47;48.00;53237.44;5016333;28;20443;-63
2022/05/10 00:04:42;;;;;;;15.23;5.30;;;;;;;-144.47;47.82;53197.72;5009478;28;20113;-66
2022/05/10 00:07:08;;;;;;;17.02;8.73;;;;;;;-144.47;47.46;53217.59;5010401;28;20049;-65
2022/05/10 00:09:33;;;;;;;15.82;8.40;;;;;;;-144.47;47.47;53211.63;5018776;28;20511;-65
2022/05/10 00:11:59;;;;;;;17.80;6.03;;;;;;;-144.47;47.73;53215.59;5021473;28;20033;-64
2022/05/10 00:14:27;;;;;;;14.45;5.85;;;;;;;-144.47;47.78;53237.44;5026786;28;20496;-66
2022/05/10 00:16:53;;;;;;;14.55;5.38;;;;;;;-144.47;47.34;53259.31;5024327;28;20056;-66
2022/05/10 00:19:20;;;;;;;14.98;5.72;;;;;;;-144.47;47.79;53227.53;5018050;28;20041;-64
2022/05/10 00:21:47;;;;;;;20.23;7.40;;;;;;;-144.47;48.20;53219.56;5005784;28;20032;-65
2022/05/10 00:24:12;;;;;;;17.00;7.30;;;;;;;-144.47;48.74;53209.66;5009177;28;20053;-66
2022/05/10 00:26:37;;;;;;;19.40;6.70;;;;;;;-144.47;48.90;53209.66;4997915;28;20132;-66
2022/05/10 00:29:03;;;;;;;22.90;8.02;;;;;;;-144.47;49.33;53217.59;5002490;28;20041;-64
2022/05/10 00:31:29;;;;;;;20.30;6.80;;;;;;;-144.47;49.56;53211.63;5006621;28;20037;-63
2022/05/10 00:33:55;;;;;;;21.13;7.68;;;;;;;-144.47;49.85;53221.56;5009228;28;20026;-65
2022/05/10 00:36:23;;;;;;;28.58;8.85;;;;;;;-144.47;50.20;53207.66;5008786;28;20029;-64
2022/05/10 00:38:50;;;;;;;27.07;9.83;;;;;;;-144.47;50.45;53241.44;5019906;28;20029;-63
2022/05/10 00:41:51;;;;;;;28.33;10.35;;;;;;;-144.47;50.56;53271.22;5024612;28;20317;-65
2022/05/10 00:44:31;;;;;;;21.38;7.57;;;;;;;-144.47;50.89;53211.63;5027791;28;20041;-63
2022/05/10 00:47:02;;;;;;;21.02;7.25;;;;;;;-144.47;50.99;53215.59;5021144;28;20103;-63
2022/05/10 00:49:34;;;;;;;33.15;11.48;;;;;;;-144.47;51.37;53227.53;5012916;28;20102;-64
2022/05/10 00:52:25;;;;;;;33.88;12.98;;;;;;;-144.47;51.52;53245.41;5024227;28;20716;-62
2022/05/10 00:54:58;;;;;;;16.98;7.75;;;;;;;-144.47;52.05;53261.28;5031915;28;20500;-62
2022/05/10 00:57:34;;;;;;;18.23;6.68;;;;;;;-144.47;52.15;53185.81;5012099;28;20421;-62
2022/05/10 01:00:13;;;;;;;13.63;6.57;;;;;;;-144.47;52.29;53243.41;4985011;28;20045;-64
2022/05/10 01:02:57;;;;;;;16.77;5.78;;;;;;;-144.47;52.61;53235.47;5016623;28;20385;-65
2022/05/10 01:05:25;;;;;;;23.73;6.72;;;;;;;-144.47;52.75;53235.47;5016740;28;20113;-65
2022/05/10 01:08:14;;;;;;;17.98;7.47;;;;;;;-144.47;52.69;53239.44;5019585;28;20519;-65
2022/05/10 01:10:42;;;;;;;22.00;9.52;;;;;;;-144.47;52.60;53213.63;5025065;28;20386;-65
2022/05/10 01:13:27;;;;;;;15.95;6.75;;;;;;;-144.47;52.61;53233.47;5023167;28;20025;-65
2022/05/10 01:16:16;;;;;;;18.20;7.38;;;;;;;-144.47;52.71;53235.47;5022439;28;20034;-63
2022/05/10 01:18:42;;;;;;;24.27;10.20;;;;;;;-144.47;52.78;53231.50;5014941;28;20071;-64
2022/05/10 01:21:35;;;;;;;11.80;6.68;;;;;;;-144.47;52.49;53241.44;5018473;28;20026;-65
2022/05/10 01:24:15;;;;;;;13.70;6.10;;;;;;;-144.47;52.81;53237.44;5008571;28;20029;-65
2022/05/10 01:26:56;;;;;;;38.95;15.15;;;;;;;-144.47;53.26;53245.41;5011874;28;20038;-66
2022/05/10 01:29:34;;;;;;;48.05;19.88;;;;;;;-144.47;53.04;53227.53;5011691;28;20029;-65
2022/05/10 01:34:51;;;;;;;21.48;9.43;;;;;;;-144.47;53.31;53263.28;5012261;28;20121;-66
2022/05/10 01:37:22;;;;;;;31.23;10.43;;;;;;;-144.47;53.50;53219.56;5012110;28;20033;-66
2022/05/10 01:40:04;;;;;;;19.98;9.13;;;;;;;-144.47;53.86;53205.66;5011587;28;20040;-66
2022/05/10 01:42:37;;;;;;;16.30;7.88;;;;;;;-144.47;53.81;53213.63;5010812;28;20057;-65
2022/05/10 01:45:14;;;;;;;17.38;8.68;;;;;;;-144.47;53.88;53235.47;5020619;28;20625;-62
2022/05/10 01:47:54;;;;;;;18.83;8.48;;;;;;;-144.47;54.07;53247.38;5014722;28;20101;-66
2022/05/10 01:50:23;;;;;;;19.80;7.38;;;;;;;-144.47;54.02;53267.25;4999039;28;20165;-65
2022/05/10 01:53:04;;;;;;;15.00;8.10;;;;;;;-144.47;53.83;53249.38;5028165;28;20026;-62
2022/05/10 01:55:55;;;;;;;33.50;15.40;;;;;;;-144.47;53.87;53253.34;5029163;28;20024;-64
2022/05/10 01:58:27;;;;;;;17.85;8.32;;;;;;;-144.47;54.01;53237.44;5019570;28;20094;-64
2022/05/10 02:01:00;;;;;;;17.33;8.45;;;;;;;-144.47;54.10;53249.38;5024430;28;20022;-62
2022/05/10 02:03:29;;;;;;;25.13;8.02;;;;;;;-144.47;54.50;53223.56;5024041;28;20032;-63
2022/05/10 02:06:06;;;;;;;16.02;7.55;;;;;;;-144.47;54.50;53271.22;5030487;28;20506;-63
2022/05/10 02:08:42;;;;;;;27.65;9.43;;;;;;;-144.47;55.05;53217.59;5016021;28;20045;-66
2022/05/10 02:11:12;;;;;;;17.50;6.88;;;;;;;-144.47;55.22;53261.28;5030460;28;20076;-64
2022/05/10 02:13:42;;;;;;;15.20;5.95;;;;;;;-144.47;55.74;53241.44;5017081;28;20080;-62
2022/05/10 02:16:20;;;;;;;14.43;6.57;;;;;;;-144.47;56.14;53221.56;5030722;28;20037;-63
2022/05/10 02:18:52;;;;;;;16.17;6.10;;;;;;;-144.47;56.54;53233.47;5023906;28;20030;-63
2022/05/10 02:21:23;;;;;;;15.68;5.90;;;;;;;-144.47;56.86;53247.38;5006165;28;20018;-65
2022/05/10 02:23:55;;;;;;;18.15;6.50;;;;;;;-144.47;57.26;53281.16;5015747;28;20136;-64
2022/05/10 02:26:27;;;;;;;27.30;8.00;;;;;;;-144.47;57.83;53261.28;4971175;28;20116;-66
2022/05/10 02:28:56;;;;;;;16.50;6.13;;;;;;;-144.47;58.06;53279.16;5008536;28;20148;-65
2022/05/10 02:33:06;;;;;;;20.17;5.25;;;;;;;-144.47;58.60;53261.28;5011180;28;20480;-63
2022/05/10 02:34:20;;;;;;;13.07;5.65;;;;;;;-144.47;58.89;53277.19;5015817;28;20524;-64
2022/05/10 02:36:46;;;;;;;11.95;5.32;;;;;;;-144.47;59.06;53277.19;5009857;28;20038;-63
2022/05/10 02:39:11;;;;;;;17.98;7.30;;;;;;;-144.47;59.03;53267.25;5022292;28;20030;-64
2022/05/10 02:41:36;;;;;;;25.63;6.38;;;;;;;-144.47;59.20;53287.13;5022316;28;20025;-63
2022/05/10 02:44:04;;;;;;;15.40;5.68;;;;;;;-144.47;59.18;53295.06;5010499;28;20029;-65
2022/05/10 02:46:29;;;;;;;11.98;5.90;;;;;;;-144.47;59.27;53277.19;5022056;28;20033;-62
2022/05/10 02:48:54;;;;;;;20.45;6.93;;;;;;;-144.47;59.30;53277.19;5010372;28;20176;-62
2022/05/10 02:51:20;;;;;;;15.48;5.88;;;;;;;-144.47;59.56;53277.19;5010595;28;20516;-63
2022/05/10 02:53:46;;;;;;;12.10;6.15;;;;;;;-144.47;59.22;53273.22;5004291;28;20041;-63
2022/05/10 02:56:19;;;;;;;23.67;6.88;;;;;;;-144.47;59.40;53251.34;5022108;28;20032;-65
2022/05/10 02:58:50;;;;;;;13.25;5.75;;;;;;;-144.47;59.37;53239.44;5005663;28;20494;-65
2022/05/10 03:01:29;;;;;;;14.70;6.03;;;;;;;-144.47;59.58;53231.50;5000442;28;20029;-63
2022/05/10 03:03:54;;;;;;;;;;;;;;;-144.47;59.83;53269.22;5021892;28;20048;-64
2022/05/10 03:06:23;;;;;;;15.95;5.60;;;;;;;-144.47;59.81;53293.06;5018849;28;19916;-62
2022/05/10 03:08:49;;;;;;;16.58;6.13;;;;;;;-144.47;59.75;53265.25;5011209;28;20025;-65
2022/05/10 03:11:14;;;;;;;14.15;6.32;;;;;;;-144.47;59.96;53271.22;5001451;28;20033;-65
2022/05/10 03:13:40;;;;;;;13.05;6.50;;;;;;;-144.47;59.92;53269.22;5025573;28;20052;-62
2022/05/10 03:16:06;;;;;;;11.27;5.80;;;;;;;-144.47;59.83;53257.31;5001326;28;20026;-65
2022/05/10 03:18:31;;;;;;;12.38;5.13;;;;;;;-144.47;59.75;53279.16;5011085;28;20391;-63
2022/05/10 03:20:57;;;;;;;10.32;5.85;;;;;;;-144.47;60.05;53251.34;5014665;28;20028;-65
2022/05/10 03:23:22;;;;;;;13.30;6.25;;;;;;;-144.47;59.77;53271.22;5017541;28;20109;-64
2022/05/10 03:25:48;;;;;;;15.95;5.38;;;;;;;-144.47;60.01;53265.25;5018685;28;20042;-65
2022/05/10 03:28:14;;;;;;;16.38;5.65;;;;;;;-144.47;60.01;53265.25;5021807;28;20049;-64
2022/05/10 03:30:39;;;;;;;11.13;5.18;;;;;;;-144.47;60.51;53273.22;5013498;28;20030;-63
2022/05/10 03:33:05;;;;;;;9.90;5.38;;;;;;;-144.47;60.14;53253.34;5024762;28;20624;-65
2022/05/10 03:35:30;;;;;;;13.60;6.18;;;;;;;-144.47;59.82;53265.25;5021079;28;20109;-66
2022/05/10 03:37:56;;;;;;;21.77;6.85;;;;;;;-144.47;60.03;53257.31;5011157;28;20034;-66
2022/05/10 03:40:21;;;;;;;13.52;5.57;;;;;;;-144.47;60.03;53241.44;5008665;28;20072;-65
2022/05/10 03:42:49;;;;;;;14.43;5.55;;;;;;;-144.47;59.87;53243.41;5009608;28;20041;-65
2022/05/10 03:45:15;;;;;;;14.13;5.13;;;;;;;-144.47;59.77;53261.28;5018155;28;20017;-65
2022/05/10 03:47:42;;;;;;;15.23;6.10;;;;;;;-144.47;59.91;53263.28;5010203;28;20488;-65
2022/05/10 03:50:09;;;;;;;13.13;6.60;;;;;;;-144.47;60.18;53271.22;4996713;28;20030;-63
2022/05/10 03:52:37;;;;;;;11.88;5.50;;;;;;;-144.47;59.95;53297.03;5008887;28;20045;-66
2022/05/10 03:55:03;;;;;;;18.30;6.28;;;;;;;-144.47;59.87;53223.56;5010087;28;20038;-64
2022/05/10 03:57:29;;;;;;;10.80;5.63;;;;;;;-144.47;59.95;53281.16;5010506;28;20072;-63
2022/05/10 03:59:54;;;;;;;16.88;6.53;;;;;;;-144.47;60.00;53259.31;5016944;28;20041;-64
2022/05/10 04:02:20;;;;;;;10.90;5.38;;;;;;;-144.47;59.90;53239.44;5012819;28;20034;-62
2022/05/10 04:04:45;;;;;;;13.52;6.20;;;;;;;-144.47;59.93;53301.03;5008936;28;20385;-66
2022/05/10 04:07:11;;;;;;;17.65;6.00;;;;;;;-144.47;60.11;53297.03;5010391;28;20530;-65
2022/05/10 04:09:37;;;;;;;14.77;6.15;;;;;;;-144.47;60.10;53245.41;5005262;28;20030;-66
2022/05/10 04:12:03;;;;;;;21.55;7.55;;;;;;;-144.47;59.95;53271.22;4990560;28;20539;-64
2022/05/10 04:14:29;;;;;;;10.90;5.90;;;;;;;-144.47;59.80;53271.22;5018263;28;20500;-62
2022/05/10 04:16:54;;;;;;;14.93;5.80;;;;;;;-144.47;59.94;53247.38;5012621;28;20029;-63
2022/05/10 04:19:20;;;;;;;14.43;5.97;;;;;;;-144.47;59.77;53287.13;5013707;28;20524;-64
2022/05/10 04:21:45;;;;;;;10.70;6.30;;;;;;;-144.47;59.95;53229.50;4999180;28;20030;-65
2022/05/10 04:24:10;;;;;;;13.95;5.22;;;;;;;-144.47;59.95;53285.13;4996905;28;20048;-63
2022/05/10 04:26:37;;;;;;;13.48;6.95;;;;;;;-144.47;60.15;53273.22;4995149;28;20105;-63
2022/05/10 04:29:03;;;;;;;19.42;7.78;;;;;;;-144.47;60.06;53249.38;4995577;28;20021;-65
2022/05/10 04:31:28;;;;;;;17.02;6.00;;;;;;;-144.47;60.39;53306.97;4997103;28;20025;-63
2022/05/10 04:33:53;;;;;;;13.30;6.22;;;;;;;-144.47;60.03;53308.97;4996380;28;20038;-63
2022/05/10 04:36:22;;;;;;;20.85;7.38;;;;;;;-144.47;60.04;53279.16;5014861;28;20037;-63
2022/05/10 04:38:48;;;;;;;13.18;6.50;;;;;;;-144.47;60.12;53241.44;5011432;28;20092;-65
2022/05/10 04:41:24;;;;;;;11.20;6.03;;;;;;;-144.47;59.77;53251.34;5021694;28;20022;-67
2022/05/10 04:43:50;;;;;;;14.27;6.72;;;;;;;-144.47;59.92;53293.06;5025027;28;20100;-63
2022/05/10 04:46:15;;;;;;;14.38;7.47;;;;;;;-144.47;59.58;53277.19;5033350;28;20094;-65
2022/05/10 04:48:41;;;;;;;16.42;7.03;;;;;;;-144.47;59.63;53223.56;5027479;28;20030;-65
2022/05/10 04:51:06;;;;;;;30.20;9.63;;;;;;;-144.47;59.52;53259.31;5005268;28;20033;-66
2022/05/10 04:53:32;;;;;;;17.65;6.35;;;;;;;-144.47;59.43;53251.34;5026179;28;20464;-64
2022/05/10 04:55:58;;;;;;;13.23;6.50;;;;;;;-144.47;59.49;53257.31;5031838;28;20032;-65
2022/05/10 04:58:23;;;;;;;14.25;5.95;;;;;;;-144.47;59.00;53237.44;5004206;28;20113;-66
2022/05/10 05:00:49;;;;;;;15.45;6.65;;;;;;;-144.47;58.86;53229.50;5001347;28;20563;-63
2022/05/10 05:03:14;;;;;;;14.60;7.15;;;;;;;-144.47;58.89;53261.28;5009531;28;20087;-65
2022/05/10 05:05:39;;;;;;;19.90;6.97;;;;;;;-144.47;58.83;53257.31;5020948;28;20121;-65
2022/05/10 05:08:05;;;;;;;17.77;6.60;;;;;;;-144.47;58.28;53261.28;5060957;22;20129;-69
2022/05/10 05:10:30;;;;;;;13.73;6.65;;;;;;;-144.47;58.13;53209.66;5037336;28;20395;-70
2022/05/10 05:12:56;;;;;;;11.38;5.82;;;;;;;-144.47;57.80;53279.16;5036618;28;20044;-68
2022/05/10 05:15:21;;;;;;;13.45;6.07;;;;;;;-144.47;57.14;53247.38;5047520;28;20741;-69
2022/05/10 05:17:46;;;;;;;18.20;6.60;;;;;;;-144.47;57.06;53223.56;5022160;28;20057;-68
2022/05/10 05:20:12;;;;;;;13.75;6.93;;;;;;;-144.47;56.57;53227.53;5020398;28;20048;-68
2022/05/10 05:22:38;;;;;;;14.68;6.25;;;;;;;-144.47;56.07;53243.41;5018106;28;20017;-69
2022/05/10 05:25:05;;;;;;;16.10;6.72;;;;;;;-144.47;56.12;53245.41;5020306;28;20036;-69
2022/05/10 05:27:31;;;;;;;16.52;7.28;;;;;;;-144.47;56.22;53209.66;5015449;28;20044;-68
2022/05/10 05:29:56;;;;;;;36.00;7.93;;;;;;;-144.47;55.62;53243.41;5013057;28;20097;-69
2022/05/10 05:32:28;;;;;;;50.17;10.55;;;;;;;-144.47;55.65;53281.16;5026585;28;20068;-69
2022/05/10 05:34:56;;;;;;;21.80;7.35;;;;;;;-144.47;55.49;53241.44;5014933;28;20026;-68
2022/05/10 05:37:33;;;;;;;16.83;7.45;;;;;;;-144.47;55.44;53217.59;5015469;28;20025;-68
2022/05/10 05:40:15;;;;;;;15.95;6.82;;;;;;;-144.47;55.15;53219.56;5013317;28;20105;-69
2022/05/10 05:42:41;;;;;;;17.02;6.55;;;;;;;-144.47;54.79;53209.66;5013265;28;20018;-68
2022/05/10 05:45:09;;;;;;;17.70;6.88;;;;;;;-144.47;54.21;53245.41;5014952;28;20049;-68
2022/05/10 05:47:35;;;;;;;11.23;6.00;;;;;;;-144.47;54.02;53213.63;5003853;28;20405;-67
2022/05/10 05:50:00;;;;;;;11.57;6.90;;;;;;;-144.47;54.24;53211.63;5014054;28;20029;-68
2022/05/10 05:52:26;;;;;;;20.60;6.50;;;;;;;-144.47;54.32;53239.44;5019887;28;20428;-67
2022/05/10 05:54:53;;;;;;;16.65;6.93;;;;;;;-144.47;54.14;53233.47;5015287;28;20033;-70
2022/05/10 05:57:20;;;;;;;18.58;6.72;;;;;;;-144.47;53.85;53221.56;5014865;28;20037;-68
2022/05/10 05:59:45;;;;;;;13.23;6.75;;;;;;;-144.47;53.56;53187.78;5013671;28;20029;-69
2022/05/10 06:02:17;;;;;;;19.70;7.40;;;;;;;-144.47;53.77;53251.34;5009240;28;20037;-69
2022/05/10 06:04:43;;;;;;;16.27;6.30;;;;;;;-144.47;53.54;53233.47;5016543;28;20022;-68
2022/05/10 06:07:13;;;;;;;24.25;6.63;;;;;;;-144.47;53.13;53227.53;5017290;28;20048;-67
2022/05/10 06:09:42;;;;;;;22.92;6.72;;;;;;;-144.47;52.69;53211.63;5016369;28;20454;-68
2022/05/10 06:12:08;;;;;;;;;;;;;;;-144.47;52.78;53231.50;5018558;28;20025;-67
2022/05/10 06:14:34;;;;;;;17.52;6.93;;;;;;;-144.47;52.79;53205.66;5014771;28;19958;-70
2022/05/10 06:17:00;;;;;;;13.43;6.10;;;;;;;-144.47;52.71;53249.38;5015305;28;20028;-69
2022/05/10 06:19:27;;;;;;;14.65;6.43;;;;;;;-144.47;52.61;53195.75;5019214;28;20079;-67
2022/05/10 06:21:53;;;;;;;13.75;6.80;;;;;;;-144.47;52.35;53237.44;5014689;28;20064;-69
2022/05/10 06:24:19;;;;;;;18.85;6.28;;;;;;;-144.47;52.46;53209.66;5013716;28;20319;-68
2022/05/10 06:26:44;;;;;;;16.58;6.10;;;;;;;-144.47;52.39;53201.69;5017050;28;20066;-68
2022/05/10 06:29:09;;;;;;;20.63;6.68;;;;;;;-144.47;52.52;53211.63;5014670;28;20029;-69
2022/05/10 06:31:36;;;;;;;16.65;6.60;;;;;;;-144.47;52.09;53223.56;5021466;28;20033;-69
2022/05/10 06:34:02;;;;;;;24.02;6.78;;;;;;;-144.47;52.10;53209.66;5014140;28;20034;-68
2022/05/10 06:36:28;;;;;;;24.52;6.30;;;;;;;-144.47;52.17;53207.66;5015227;28;20097;-69
2022/05/10 06:38:53;;;;;;;12.63;6.32;;;;;;;-144.47;52.29;53181.84;5013754;28;20116;-71
2022/05/10 06:41:18;;;;;;;19.65;6.22;;;;;;;-144.47;51.96;53187.78;5012784;28;20103;-69
2022/05/10 06:43:44;;;;;;;18.42;5.90;;;;;;;-144.47;50.95;53215.59;5013173;28;20032;-67
2022/05/10 06:46:11;;;;;;;11.50;5.25;;;;;;;-144.47;50.03;53205.66;5013876;28;20092;-69
2022/05/10 06:48:37;;;;;;;14.63;5.47;;;;;;;-144.47;49.90;53229.50;5013179;28;20424;-68
2022/05/10 06:51:07;;;;;;;10.80;5.30;;;;;;;-144.47;49.80;53171.91;5013946;28;20034;-69
2022/05/10 06:53:32;;;;;;;11.48;6.90;;;;;;;-144.47;49.56;53191.78;5013629;28;20038;-70
2022/05/10 06:55:58;;;;;;;18.83;5.65;;;;;;;-144.47;49.79;53171.91;5014127;28;20030;-70
2022/05/10 06:58:23;;;;;;;10.43;5.35;;;;;;;-144.47;48.98;53205.66;5006969;28;20017;-68
2022/05/10 07:00:49;;;;;;;15.45;6.07;;;;;;;-144.47;49.21;53197.72;5019077;28;20022;-70
2022/05/10 07:03:16;;;;;;;19.20;6.38;;;;;;;-144.47;49.40;53165.94;5012939;28;20118;-67
2022/05/10 07:05:44;;;;;;;19.92;6.35;;;;;;;-144.47;49.48;53177.88;5013607;28;20021;-68
2022/05/10 07:08:10;;;;;;;13.65;6.00;;;;;;;-144.47;49.79;53173.88;5013244;28;20493;-70
2022/05/10 07:10:36;;;;;;;19.10;7.30;;;;;;;-144.47;49.74;53173.88;5013614;28;20037;-68
2022/05/10 07:13:01;;;;;;;25.10;7.03;;;;;;;-144.47;49.80;53201.69;5013114;28;20050;-68
2022/05/10 07:15:27;;;;;;;16.60;6.95;;;;;;;-144.47;49.52;53144.09;5010973;28;20036;-68
2022/05/10 07:17:52;;;;;;;25.60;6.47;;;;;;;-144.47;49.61;53199.72;5017183;28;20022;-70
2022/05/10 07:20:19;;;;;;;15.43;5.45;;;;;;;-144.47;49.58;53209.66;5022896;28;20102;-69
2022/05/10 07:22:45;;;;;;;15.63;6.15;;;;;;;-144.47;49.39;53142.09;5011228;28;20076;-70
2022/05/10 07:25:13;;;;;;;16.23;6.05;;;;;;;-144.47;48.53;53189.78;5013302;28;20489;-70
2022/05/10 07:27:39;;;;;;;14.25;5.68;;;;;;;-144.47;48.45;53201.69;5011746;28;20025;-68
2022/05/10 07:30:05;;;;;;;20.13;6.50;;;;;;;-144.47;48.46;53211.63;5012607;28;20596;-70
2022/05/10 07:32:30;;;;;;;14.00;6.22;;;;;;;-144.47;48.52;53197.72;5016492;28;20033;-70
2022/05/10 07:34:56;;;;;;;16.67;6.43;;;;;;;-144.47;48.74;53235.47;5014466;28;20037;-68
2022/05/10 07:37:21;;;;;;;11.02;5.93;;;;;;;-144.47;48.69;53165.94;5012989;28;20113;-70
2022/05/10 07:39:47;;;;;;;11.73;5.90;;;;;;;-144.47;48.37;53187.78;5013495;28;20029;-71
2022/05/10 07:42:12;;;;;;;15.07;6.22;;;;;;;-144.47;48.85;53173.88;5000563;28;20049;-70
2022/05/10 07:44:37;;;;;;;17.25;6.00;;;;;;;-144.47;48.66;53191.78;5011223;28;20047;-68
2022/05/10 07:47:03;;;;;;;10.82;5.85;;;;;;;-144.47;48.37;53175.88;5008129;28;20029;-68
2022/05/10 07:49:28;;;;;;;26.73;7.30;;;;;;;-144.47;48.53;53181.84;5010871;28;20373;-70
2022/05/10 07:51:54;;;;;;;12.13;5.30;;;;;;;-144.47;48.19;53161.97;4999799;28;20045;-69
2022/05/10 07:54:20;;;;;;;20.92;5.90;;;;;;;-144.47;47.88;53181.84;5015599;28;20028;-69
2022/05/10 07:56:46;;;;;;;16.25;5.72;;;;;;;-144.47;47.78;53163.97;5011304;28;20050;-69
2022/05/10 07:59:12;;;;;;;13.93;5.70;;;;;;;-144.47;47.52;53167.94;5014760;28;20473;-69
2022/05/10 08:01:38;;;;;;;15.57;5.53;;;;;;;-144.47;46.76;53175.88;5013883;28;20029;-68
2022/05/10 08:04:04;;;;;;;19.48;6.53;;;;;;;-144.47;46.18;53152.03;5012180;28;20038;-68
2022/05/10 08:06:30;;;;;;;18.55;5.65;;;;;;;-144.47;45.58;53165.94;5013644;28;20040;-70
2022/05/10 08:08:56;;;;;;;13.55;5.10;;;;;;;-144.47;45.01;53150.06;5011179;28;20066;-70
2022/05/10 08:11:21;;;;;;;22.70;4.82;;;;;;;-144.47;44.68;53152.03;5014949;28;20483;-70
2022/05/10 08:13:48;;;;;;;17.13;5.18;;;;;;;-144.47;44.27;53158.00;5013166;28;20036;-68
2022/05/10 08:16:13;;;;;;;11.90;4.43;;;;;;;-144.47;44.14;53110.31;5012486;28;20122;-68
2022/05/10 08:18:40;;;;;;;15.05;4.65;;;;;;;-144.47;43.76;53160.00;5024091;28;20105;-69
2022/05/10 08:21:06;;;;;;;25.30;5.70;;;;;;;-144.47;43.44;53122.25;5012578;28;20033;-68
2022/05/10 08:23:35;;;;;;;16.13;5.28;;;;;;;-144.47;43.29;53142.09;5002025;28;20030;-71
2022/05/10 08:26:02;;;;;;;10.02;4.57;;;;;;;-144.47;43.34;53144.09;5008567;28;20018;-69
2022/05/10 08:28:29;;;;;;;14.05;5.57;;;;;;;-144.47;43.37;53112.31;5001882;28;20014;-66
2022/05/10 08:30:55;;;;;;;12.07;5.10;;;;;;;-144.47;43.71;53124.22;5018427;28;20129;-68
2022/05/10 08:33:24;;;;;;;14.85;5.63;;;;;;;-144.47;44.01;53128.22;5013174;28;20060;-68
2022/05/10 08:35:54;;;;;;;15.43;4.75;;;;;;;-144.47;43.83;53165.94;4999279;28;20047;-70
2022/05/10 08:38:20;;;;;;;25.23;5.43;;;;;;;-144.47;43.57;53142.09;5012654;28;20486;-68
2022/05/10 08:40:53;;;;;;;13.38;4.78;;;;;;;-144.47;43.67;53146.09;5011664;28;20148;-67
2022/05/10 08:43:38;;;;;;;14.13;5.40;;;;;;;-144.47;43.71;53154.03;5012870;28;20045;-67
2022/05/10 08:46:06;;;;;;;14.52;5.30;;;;;;;-144.47;44.33;53130.19;4999522;28;20103;-69
2022/05/10 08:48:32;;;;;;;7.93;4.68;;;;;;;-144.47;43.94;53122.25;5011795;28;20033;-68
2022/05/10 08:50:58;;;;;;;12.43;4.75;;;;;;;-144.47;43.86;53165.94;5002318;28;20049;-69
2022/05/10 08:53:24;;;;;;;11.15;5.18;;;;;;;-144.47;43.64;53122.25;5007050;28;20075;-69
2022/05/10 08:55:56;;;;;;;18.38;5.25;;;;;;;-144.47;43.55;53163.97;5010512;28;20030;-67
2022/05/10 08:58:43;;;;;;;17.13;5.10;;;;;;;-144.47;43.51;53130.19;5005704;28;20026;-68
2022/05/10 09:01:15;;;;;;;9.70;5.57;;;;;;;-144.47;43.50;53169.91;5010608;28;20056;-68
2022/05/10 09:03:56;;;;;;;9.57;4.20;;;;;;;-144.47;42.92;53136.16;5016871;28;20032;-67
2022/05/10 09:06:40;;;;;;;12.27;4.10;;;;;;;-144.47;42.42;53130.19;5013340;28;20072;-68
2022/05/10 09:09:25;;;;;;;8.57;3.42;;;;;;;-144.47;39.99;53122.25;5009268;28;20037;-68
2022/05/10 09:12:03;;;;;;;13.63;3.72;;;;;;;-144.47;40.13;53114.31;5015747;28;20555;-66
2022/05/10 09:14:33;;;;;;;8.40;3.47;;;;;;;-144.47;40.75;53110.31;5017017;28;20080;-68
2022/05/10 09:17:01;;;;;;;21.40;4.63;;;;;;;-144.47;41.08;53142.09;5016495;28;20262;-68
2022/05/10 09:19:37;;;;;;;10.07;3.72;;;;;;;-144.47;40.96;53122.25;5022367;28;20167;-70
2022/05/10 09:22:30;;;;;;;8.10;3.78;;;;;;;-144.47;40.80;53124.22;5017982;28;20350;-68
2022/05/10 09:24:58;;;;;;;13.15;4.25;;;;;;;-144.47;41.23;53116.28;5016797;28;20049;-69
2022/05/10 09:27:34;;;;;;;9.90;3.95;;;;;;;-144.47;41.10;53144.09;5014886;28;20025;-68
2022/05/10 09:30:00;;;;;;;13.73;4.25;;;;;;;-144.47;40.70;53138.13;5015437;28;20053;-67
2022/05/10 09:35:25;;;;;;;8.75;3.70;;;;;;;-144.47;38.74;53118.28;5016976;28;20064;-67
2022/05/10 09:37:57;;;;;;;21.48;3.58;;;;;;;-144.47;39.24;53124.22;5014725;28;20034;-68
2022/05/10 09:40:43;;;;;;;7.68;3.53;;;;;;;-144.47;39.36;53118.28;5013968;28;20044;-68
2022/05/10 09:43:28;;;;;;;8.52;3.70;;;;;;;-144.47;40.02;53112.31;5013682;28;20053;-66
2022/05/10 09:46:12;;;;;;;10.82;4.03;;;;;;;-144.47;39.47;53144.09;5013582;28;20445;-69
2022/05/10 09:48:40;;;;;;;14.75;3.60;;;;;;;-144.47;38.72;53082.53;5020842;28;20073;-68
2022/05/10 09:51:36;;;;;;;11.52;3.75;;;;;;;-144.47;38.47;53126.22;5012846;28;20053;-68
2022/05/10 09:54:09;;;;;;;7.63;3.33;;;;;;;-144.47;37.76;53136.16;5014140;28;20037;-68
2022/05/10 09:56:39;;;;;;;9.75;3.33;;;;;;;-144.47;37.57;53078.53;4999098;28;20037;-71
2022/05/10 09:59:22;;;;;;;6.30;3.13;;;;;;;-144.47;37.21;53114.31;5016078;28;20018;-68
2022/05/10 10:01:54;;;;;;;12.15;3.45;;;;;;;-144.47;37.25;53066.63;5010693;28;20026;-66
2022/05/10 10:04:27;;;;;;;13.27;3.85;;;;;;;-144.47;37.53;53086.50;5014435;28;20025;-68
2022/05/10 10:07:06;;;;;;;7.70;3.33;;;;;;;-144.47;37.13;53098.41;5016640;28;20049;-68
2022/05/10 10:09:40;;;;;;;7.75;3.35;;;;;;;-144.47;36.74;53102.38;5015973;28;20090;-68
2022/05/10 10:12:33;;;;;;;15.13;3.08;;;;;;;-144.47;36.01;53124.22;5016869;28;20029;-67
2022/05/10 10:14:59;;;;;;;9.55;2.97;;;;;;;-144.47;33.87;53074.56;5016685;28;20033;-67
2022/05/10 10:17:32;;;;;;;5.70;2.55;;;;;;;-144.47;33.27;53104.38;5025371;28;20017;-67
2022/05/10 10:20:19;;;;;;;5.78;2.40;;;;;;;-144.47;32.67;53112.31;5016590;28;20293;-69
2022/05/10 10:22:53;;;;;;;7.53;2.70;;;;;;;-144.47;33.90;53100.41;5016503;28;20018;-66
2022/05/10 10:25:39;;;;;;;9.18;3.10;;;;;;;-144.47;33.62;53090.47;5015330;28;20331;-68
2022/05/10 10:28:13;;;;;;;8.30;2.65;;;;;;;-144.47;32.55;53084.50;5010454;28;20090;-69
2022/05/10 10:30:57;;;;;;;9.25;2.50;;;;;;;-144.47;33.89;53110.31;5021647;28;20059;-67
2022/05/10 10:33:46;;;;;;;9.73;3.17;;;;;;;-144.47;33.69;53066.63;5013750;28;20119;-68
2022/05/10 10:36:18;;;;;;;15.05;5.57;;;;;;;-144.47;33.52;53088.47;5002258;28;20029;-67
2022/05/10 10:39:11;;;;;;;10.07;3.00;;;;;;;-144.47;33.12;53066.63;5013840;28;20064;-67
2022/05/10 10:41:55;;;;;;;8.32;3.28;;;;;;;-144.47;32.50;53084.50;5012883;28;20427;-67
2022/05/10 10:44:27;;;;;;;14.18;3.00;;;;;;;-144.47;32.64;53078.53;5001354;28;20032;-68
2022/05/10 10:47:18;;;;;;;5.97;2.63;;;;;;;-144.47;31.73;53072.59;5013903;28;20041;-67
2022/05/10 10:49:57;;;;;;;7.05;2.80;;;;;;;-144.47;31.37;53086.50;5012983;28;20603;-68
2022/05/10 10:52:23;;;;;;;11.82;2.72;;;;;;;-144.47;30.91;53066.63;4997570;28;20518;-68
2022/05/10 10:54:49;;;;;;;10.75;2.78;;;;;;;-144.47;31.26;53072.59;5010473;28;20064;-68
2022/05/10 10:57:24;;;;;;;7.75;2.80;;;;;;;-144.47;31.34;53086.50;4996041;28;20077;-68
2022/05/10 11:00:02;;;;;;;19.33;3.53;;;;;;;-144.47;30.94;53110.31;5005896;28;20034;-68
2022/05/10 11:02:55;;;;;;;6.80;2.60;;;;;;;-144.47;31.06;53058.69;5004629;28;20022;-68
2022/05/10 11:05:52;;;;;;;8.52;3.30;;;;;;;-144.47;30.86;53052.72;4998330;28;20092;-68
2022/05/10 11:08:36;;;;;;;8.88;2.65;;;;;;;-144.47;29.87;53042.78;5027044;22;20068;-66
2022/05/10 11:11:10;;;;;;;12.48;2.85;;;;;;;-144.47;30.44;53054.72;5009141;28;20401;-66
2022/05/10 11:13:50;;;;;;;14.90;3.08;;;;;;;-144.47;30.46;52999.09;5002235;28;20034;-66
2022/05/10 11:16:25;;;;;;;14.30;5.15;;;;;;;-144.47;30.36;53028.88;5010275;28;20018;-66
2022/05/10 11:19:11;;;;;;;14.13;2.92;;;;;;;-144.47;29.94;53040.81;5002492;28;20030;-68
2022/05/10 11:21:52;;;;;;;8.32;3.20;;;;;;;-144.47;29.96;53064.66;4978042;28;20045;-65
2022/05/10 11:24:48;;;;;;;10.90;3.00;;;;;;;-144.47;30.20;53022.94;4989615;28;20481;-66
2022/05/10 11:27:29;;;;;;;6.07;2.63;;;;;;;-144.47;29.87;53013.00;4989141;28;20041;-65
2022/05/10 11:30:08;;;;;;;10.88;2.70;;;;;;;-144.47;29.82;53038.81;4990001;28;20030;-65
2022/05/10 11:32:48;;;;;;;5.00;2.60;;;;;;;-144.47;30.00;53040.81;4986261;28;20023;-69